createdAt,value
2023-04-11T00:00:41.595Z,1.10
2023-04-11T00:03:39.016Z,0.80
2023-04-11T00:06:33.759Z,1.15
2023-04-11T00:09:26.777Z,1.10
2023-04-11T00:12:19.654Z,1.20
2023-04-11T00:15:12.686Z,1.10
2023-04-11T00:18:06.847Z,0.82
2023-04-11T00:21:00.735Z,1.20
2023-04-11T00:23:54.048Z,1.02
2023-04-11T00:26:46.517Z,0.80
2023-04-11T00:29:39.555Z,1.00
2023-04-11T00:32:32.723Z,1.30
2023-04-11T00:35:25.770Z,1.10
2023-04-11T00:38:20.019Z,1.10
2023-04-11T00:41:13.035Z,0.98
2023-04-11T00:44:06.285Z,0.90
2023-04-11T00:47:01.246Z,0.90
2023-04-11T00:49:54.649Z,1.00
2023-04-11T00:52:50.515Z,1.10
2023-04-11T00:55:45.165Z,1.00
2023-04-11T00:58:39.012Z,1.05
2023-04-11T01:01:36.169Z,0.70
2023-04-11T01:04:30.694Z,0.75
2023-04-11T01:07:24.708Z,1.10
2023-04-11T01:10:18.677Z,0.82
2023-04-11T01:13:13.949Z,1.05
2023-04-11T01:16:08.180Z,0.93
2023-04-11T01:19:01.833Z,0.90
2023-04-11T01:21:56.958Z,1.05
2023-04-11T01:24:51.416Z,0.75
2023-04-11T01:27:44.981Z,1.00
2023-04-11T01:30:37.894Z,1.30
2023-04-11T01:33:30.843Z,0.90
2023-04-11T01:36:23.708Z,0.98
2023-04-11T01:39:16.940Z,1.20
2023-04-11T01:42:11.548Z,0.80
2023-04-11T01:45:06.345Z,0.82
2023-04-11T01:48:00.071Z,1.00
2023-04-11T01:50:55.496Z,1.02
2023-04-11T01:53:48.568Z,1.15
2023-04-11T01:56:41.375Z,1.00
2023-04-11T01:59:35.891Z,1.00
2023-04-11T02:02:28.743Z,0.90
2023-04-11T02:05:22.161Z,1.13
2023-04-11T02:08:16.200Z,1.13
2023-04-11T02:11:09.834Z,1.15
2023-04-11T02:14:03.613Z,0.98
2023-04-11T02:16:58.331Z,0.88
2023-04-11T02:19:51.918Z,1.00
2023-04-11T02:22:44.966Z,1.15
2023-04-11T02:25:38.875Z,0.82
2023-04-11T02:28:31.747Z,1.05
2023-04-11T02:31:25.114Z,0.85
2023-04-11T02:34:19.125Z,0.90
2023-04-11T02:37:11.601Z,0.90
2023-04-11T02:40:05.647Z,0.70
2023-04-11T02:42:58.750Z,0.65
2023-04-11T02:45:56.416Z,0.88
2023-04-11T02:48:56.098Z,1.10
2023-04-11T02:51:51.048Z,0.90
2023-04-11T02:54:43.918Z,0.98
2023-04-11T02:57:36.761Z,1.00
2023-04-11T03:00:29.767Z,1.00
2023-04-11T03:03:22.819Z,0.57
2023-04-11T03:06:16.120Z,0.80
2023-04-11T03:09:09.929Z,1.02
2023-04-11T03:12:02.925Z,0.85
2023-04-11T03:14:55.918Z,0.88
2023-04-11T03:17:49.039Z,0.90
2023-04-11T03:20:42.073Z,1.02
2023-04-11T03:23:34.677Z,0.98
2023-04-11T03:26:29.211Z,0.88
2023-04-11T03:29:22.502Z,0.80
2023-04-11T03:32:15.867Z,0.90
2023-04-11T03:35:09.340Z,0.90
2023-04-11T03:38:02.423Z,1.00
2023-04-11T03:40:55.829Z,1.02
2023-04-11T03:43:50.135Z,0.82
2023-04-11T03:46:42.873Z,0.90
2023-04-11T03:49:36.138Z,0.90
2023-04-11T03:52:29.078Z,0.98
2023-04-11T03:55:22.061Z,0.93
2023-04-11T03:58:14.861Z,1.00
2023-04-11T04:01:09.283Z,0.80
2023-04-11T04:04:03.181Z,0.65
2023-04-11T04:06:56.975Z,0.80
2023-04-11T04:09:49.821Z,0.73
2023-04-11T04:12:43.193Z,0.95
2023-04-11T04:15:36.968Z,0.80
2023-04-11T04:18:31.231Z,0.85
2023-04-11T04:21:26.683Z,1.00
2023-04-11T04:24:19.466Z,0.80
2023-04-11T04:27:13.735Z,0.90
2023-04-11T04:30:07.992Z,0.70
2023-04-11T04:33:00.613Z,0.95
2023-04-11T04:35:58.080Z,0.75
2023-04-11T04:38:51.300Z,0.77
2023-04-11T04:41:48.512Z,0.85
2023-04-11T04:44:41.658Z,0.90
2023-04-11T04:47:36.339Z,0.98
2023-04-11T04:50:30.168Z,0.80
2023-04-11T04:53:24.337Z,0.70
2023-04-11T04:56:17.719Z,0.88
2023-04-11T04:59:16.674Z,0.90
2023-04-11T05:02:09.966Z,0.80
2023-04-11T05:05:04.236Z,0.80
2023-04-11T05:07:58.081Z,0.70
2023-04-11T05:10:52.275Z,0.90
2023-04-11T05:13:44.867Z,0.77
2023-04-11T05:16:39.718Z,0.90
2023-04-11T05:19:33.248Z,0.90
2023-04-11T05:22:25.596Z,0.65
2023-04-11T05:25:18.943Z,0.70
2023-04-11T05:28:12.991Z,0.80
2023-04-11T05:31:06.935Z,1.00
2023-04-11T05:33:59.673Z,0.90
2023-04-11T05:36:52.943Z,0.80
2023-04-11T05:39:46.241Z,0.88
2023-04-11T05:42:39.195Z,0.73
2023-04-11T05:45:33.357Z,1.02
2023-04-11T05:48:27.229Z,0.85
2023-04-11T05:51:19.958Z,0.80
2023-04-11T05:54:14.910Z,0.63
2023-04-11T05:57:08.184Z,0.82
2023-04-11T06:00:02.175Z,0.60
2023-04-11T06:02:56.646Z,0.70
2023-04-11T06:05:50.438Z,0.93
2023-04-11T06:08:44.149Z,0.75
2023-04-11T06:11:37.006Z,0.60
2023-04-11T06:14:30.054Z,0.68
2023-04-11T06:17:22.847Z,0.70
2023-04-11T06:20:17.810Z,0.65
2023-04-11T06:23:11.006Z,0.80
2023-04-11T06:26:04.170Z,0.60
2023-04-11T06:28:56.831Z,0.60
2023-04-11T06:31:49.950Z,0.77
2023-04-11T06:34:42.947Z,0.70
2023-04-11T06:37:37.185Z,0.95
2023-04-11T06:40:29.942Z,0.75
2023-04-11T06:43:23.174Z,0.57
2023-04-11T06:46:16.366Z,0.90
2023-04-11T06:49:10.312Z,0.90
2023-04-11T06:52:03.563Z,0.77
2023-04-11T06:54:58.160Z,0.73
2023-04-11T06:57:50.708Z,0.80
2023-04-11T07:00:44.271Z,0.60
2023-04-11T07:03:38.135Z,0.70
2023-04-11T07:06:31.529Z,0.65
2023-04-11T07:09:25.376Z,0.73
2023-04-11T07:12:20.360Z,0.70
2023-04-11T07:15:13.197Z,0.75
2023-04-11T07:18:06.171Z,0.80
2023-04-11T07:20:59.004Z,0.60
2023-04-11T07:23:52.598Z,0.80
2023-04-11T07:26:46.628Z,0.70
2023-04-11T07:29:41.492Z,0.90
2023-04-11T07:32:35.354Z,0.77
2023-04-11T07:35:29.376Z,0.80
2023-04-11T07:38:28.709Z,0.70
2023-04-11T07:41:21.898Z,0.70
2023-04-11T07:44:15.047Z,0.68
2023-04-11T07:47:09.472Z,0.80
2023-04-11T07:50:03.090Z,0.73
2023-04-11T07:52:56.784Z,0.70
2023-04-11T07:55:50.389Z,0.70
2023-04-11T07:58:43.100Z,0.70
2023-04-11T08:01:36.282Z,0.70
2023-04-11T08:04:34.469Z,0.70
2023-04-11T08:07:28.626Z,0.60
2023-04-11T08:10:22.118Z,0.80
2023-04-11T08:13:33.487Z,0.63
2023-04-11T08:16:27.442Z,0.70
2023-04-11T08:19:21.209Z,0.77
2023-04-11T08:22:15.257Z,0.90
2023-04-11T08:25:10.482Z,0.60
2023-04-11T08:28:06.097Z,0.60
2023-04-11T08:31:02.396Z,0.90
2023-04-11T08:33:59.214Z,0.50
2023-04-11T08:36:54.328Z,0.80
2023-04-11T08:39:48.435Z,0.50
2023-04-11T08:42:41.339Z,0.75
2023-04-11T08:45:33.856Z,0.80
2023-04-11T08:48:28.401Z,0.60
2023-04-11T08:51:27.636Z,0.80
2023-04-11T08:54:21.327Z,0.70
2023-04-11T08:57:25.793Z,0.77
2023-04-11T09:00:25.016Z,0.70
2023-04-11T09:03:18.302Z,0.60
2023-04-11T09:06:11.525Z,0.63
2023-04-11T09:09:06.339Z,0.70
2023-04-11T09:11:59.428Z,0.52
2023-04-11T09:14:53.316Z,0.70
2023-04-11T09:17:46.131Z,0.88
2023-04-11T09:20:39.042Z,0.60
2023-04-11T09:23:31.898Z,0.85
2023-04-11T09:26:30.409Z,0.70
2023-04-11T09:29:38.192Z,0.75
2023-04-11T09:32:34.248Z,0.70
2023-04-11T09:35:28.548Z,0.70
2023-04-11T09:38:30.683Z,0.77
2023-04-11T09:41:32.224Z,0.80
2023-04-11T09:44:37.298Z,0.70
2023-04-11T09:47:34.455Z,0.70
2023-04-11T09:50:28.535Z,0.60
2023-04-11T09:53:22.070Z,0.70
2023-04-11T09:56:15.496Z,0.77
2023-04-11T09:59:08.297Z,0.70
2023-04-11T10:02:01.529Z,0.77
2023-04-11T10:05:00.425Z,0.90
2023-04-11T10:07:57.789Z,0.60
2023-04-11T10:10:52.943Z,0.65
2023-04-11T10:13:47.892Z,0.70
2023-04-11T10:17:11.845Z,0.75
2023-04-11T10:20:43.411Z,0.50
2023-04-11T10:24:09.943Z,0.60
2023-04-11T10:27:04.827Z,0.90
2023-04-11T10:29:58.009Z,0.60
2023-04-11T10:33:12.320Z,0.77
2023-04-11T10:36:10.082Z,0.82
2023-04-11T10:39:03.408Z,0.45
2023-04-11T10:41:56.149Z,0.98
2023-04-11T10:45:16.023Z,0.80
2023-04-11T10:48:11.878Z,0.60
2023-04-11T10:51:24.583Z,0.82
2023-04-11T10:54:26.216Z,0.60
2023-04-11T10:57:19.093Z,0.80
2023-04-11T11:00:15.892Z,0.50
2023-04-11T11:03:15.443Z,0.70
2023-04-11T11:06:10.601Z,0.70
2023-04-11T11:09:21.840Z,0.70
2023-04-11T11:12:16.379Z,0.68
2023-04-11T11:15:14.279Z,0.70
2023-04-11T11:18:09.514Z,0.70
2023-04-11T11:21:02.627Z,1.05
2023-04-11T11:23:59.643Z,0.77
2023-04-11T11:26:54.593Z,0.63
2023-04-11T11:29:48.258Z,0.73
2023-04-11T11:32:40.937Z,0.65
2023-04-11T11:35:34.090Z,0.80
2023-04-11T11:38:29.258Z,0.75
2023-04-11T11:41:23.730Z,0.65
2023-04-11T11:44:23.709Z,0.60
2023-04-11T11:47:17.206Z,0.60
2023-04-11T11:50:11.937Z,0.80
2023-04-11T11:53:14.573Z,1.00
2023-04-11T11:56:15.451Z,0.70
2023-04-11T11:59:10.347Z,0.73
2023-04-11T12:02:05.431Z,0.50
2023-04-11T12:04:59.965Z,0.60
2023-04-11T12:07:55.647Z,0.68
2023-04-11T12:10:51.191Z,0.70
2023-04-11T12:13:45.496Z,0.60
2023-04-11T12:16:40.414Z,0.60
2023-04-11T12:19:33.318Z,0.75
2023-04-11T12:22:26.107Z,0.65
2023-04-11T12:25:19.274Z,0.50
2023-04-11T12:28:12.169Z,0.60
2023-04-11T12:31:05.740Z,0.50
2023-04-11T12:34:00.625Z,0.60
2023-04-11T12:36:53.343Z,0.70
2023-04-11T12:39:46.550Z,0.55
2023-04-11T12:42:53.156Z,0.70
2023-04-11T12:45:48.493Z,0.70
2023-04-11T12:48:42.079Z,0.68
2023-04-11T12:51:36.657Z,0.50
2023-04-11T12:54:30.238Z,0.52
2023-04-11T12:57:23.892Z,0.60
2023-04-11T13:00:18.552Z,0.50
2023-04-11T13:03:12.092Z,0.60
2023-04-11T13:06:06.074Z,0.50
2023-04-11T13:09:00.721Z,0.52
2023-04-11T13:11:54.869Z,0.60
2023-04-11T13:14:48.067Z,0.70
2023-04-11T13:17:41.546Z,0.52
2023-04-11T13:20:34.683Z,0.60
2023-04-11T13:23:28.387Z,0.70
2023-04-11T13:26:22.754Z,0.50
2023-04-11T13:29:16.237Z,0.60
2023-04-11T13:32:09.433Z,0.60
2023-04-11T13:35:03.057Z,0.52
2023-04-11T13:37:56.258Z,0.60
2023-04-11T13:40:49.331Z,0.60
2023-04-11T13:43:43.897Z,0.50
2023-04-11T13:46:37.365Z,0.55
2023-04-11T13:49:30.717Z,0.50
2023-04-11T13:52:24.233Z,0.43
2023-04-11T13:55:17.396Z,0.60
2023-04-11T13:58:10.279Z,0.63
2023-04-11T14:01:05.228Z,0.70
2023-04-11T14:03:58.748Z,0.60
2023-04-11T14:06:53.849Z,0.60
2023-04-11T14:09:47.191Z,0.60
2023-04-11T14:12:40.360Z,0.40
2023-04-11T14:15:34.598Z,0.90
2023-04-11T14:18:28.920Z,0.60
2023-04-11T14:21:23.592Z,0.60
2023-04-11T14:24:16.317Z,0.50
2023-04-11T14:27:09.374Z,0.52
2023-04-11T14:30:02.294Z,0.38
2023-04-11T14:32:55.312Z,0.50
2023-04-11T14:35:50.967Z,0.70
2023-04-11T14:38:44.255Z,0.65
2023-04-11T14:41:37.602Z,0.50
2023-04-11T14:44:30.582Z,0.60
2023-04-11T14:47:23.832Z,0.63
2023-04-11T14:50:17.396Z,0.75
2023-04-11T14:53:12.512Z,0.50
2023-04-11T14:56:06.535Z,0.50
2023-04-11T14:58:59.269Z,0.60
2023-04-11T15:01:52.439Z,0.40
2023-04-11T15:04:45.878Z,0.50
2023-04-11T15:07:39.374Z,0.50
2023-04-11T15:10:34.147Z,0.52
2023-04-11T15:13:28.161Z,0.47
2023-04-11T15:16:21.848Z,0.50
2023-04-11T15:19:15.311Z,0.50
2023-04-11T15:22:08.534Z,0.50
2023-04-11T15:25:01.636Z,0.65
2023-04-11T15:27:56.033Z,0.50
2023-04-11T15:30:51.675Z,0.60
2023-04-11T15:33:44.722Z,0.40
2023-04-11T15:36:38.205Z,0.55
2023-04-11T15:39:31.587Z,0.50
2023-04-11T15:42:24.568Z,0.60
2023-04-11T15:45:18.851Z,0.50
2023-04-11T15:48:13.194Z,0.52
2023-04-11T15:51:09.895Z,0.40
2023-04-11T15:54:04.745Z,0.50
2023-04-11T15:56:58.008Z,0.40
2023-04-11T15:59:51.255Z,0.52
2023-04-11T16:02:47.107Z,0.70
2023-04-11T16:05:43.228Z,0.32
2023-04-11T16:08:37.501Z,0.30
2023-04-11T16:11:30.148Z,0.52
2023-04-11T16:14:23.796Z,0.68
2023-04-11T16:17:18.224Z,0.63
2023-04-11T16:20:18.382Z,0.45
2023-04-11T16:23:11.411Z,0.40
2023-04-11T16:26:04.884Z,0.30
2023-04-11T16:28:58.291Z,0.63
2023-04-11T16:31:51.681Z,0.60
2023-04-11T16:34:44.208Z,0.50
2023-04-11T16:37:38.534Z,0.32
2023-04-11T16:40:32.076Z,0.40
2023-04-11T16:43:25.516Z,0.60
2023-04-11T16:46:18.794Z,0.50
2023-04-11T16:49:12.595Z,0.50
2023-04-11T16:52:05.803Z,0.50
2023-04-11T16:55:00.112Z,0.50
2023-04-11T16:57:53.646Z,0.50
2023-04-11T17:00:47.544Z,0.30
2023-04-11T17:03:40.401Z,0.40
2023-04-11T17:06:33.404Z,0.43
2023-04-11T17:09:26.631Z,0.50
2023-04-11T17:12:20.995Z,0.50
2023-04-11T17:15:14.405Z,0.55
2023-04-11T17:18:07.803Z,0.63
2023-04-11T17:21:01.169Z,0.50
2023-04-11T17:23:54.708Z,0.50
2023-04-11T17:26:47.562Z,0.45
2023-04-11T17:29:41.604Z,0.50
2023-04-11T17:32:35.939Z,0.40
2023-04-11T17:35:29.666Z,0.43
2023-04-11T17:38:22.282Z,0.35
2023-04-11T17:41:15.962Z,0.40
2023-04-11T17:44:09.723Z,0.40
2023-04-11T17:47:04.048Z,0.30
2023-04-11T17:49:57.947Z,0.47
2023-04-11T17:52:52.947Z,0.40
2023-04-11T17:55:48.123Z,0.35
2023-04-11T17:58:44.238Z,0.43
2023-04-11T18:01:37.591Z,0.40
2023-04-11T18:04:32.285Z,0.30
2023-04-11T18:07:25.609Z,0.30
2023-04-11T18:10:19.530Z,0.65
2023-04-11T18:13:12.359Z,0.50
2023-04-11T18:16:06.270Z,0.38
2023-04-11T18:18:59.627Z,0.82
2023-04-11T18:21:53.937Z,0.30
2023-04-11T18:24:46.620Z,0.30
2023-04-11T18:27:40.413Z,0.30
2023-04-11T18:30:33.653Z,0.55
2023-04-11T18:33:26.807Z,0.50
2023-04-11T18:36:20.994Z,0.68
2023-04-11T18:39:17.561Z,0.50
2023-04-11T18:42:10.544Z,0.50
2023-04-11T18:45:03.667Z,0.40
2023-04-11T18:47:57.101Z,0.40
2023-04-11T18:50:59.372Z,0.40
2023-04-11T18:53:53.313Z,0.30
2023-04-11T18:56:49.477Z,0.40
2023-04-11T18:59:47.170Z,0.40
2023-04-11T19:02:43.118Z,0.45
2023-04-11T19:05:36.722Z,0.32
2023-04-11T19:08:29.764Z,0.50
2023-04-11T19:11:22.841Z,0.45
2023-04-11T19:14:17.351Z,0.40
2023-04-11T19:17:12.906Z,0.30
2023-04-11T19:20:12.260Z,0.40
2023-04-11T19:23:05.841Z,0.55
2023-04-11T19:26:00.555Z,0.35
2023-04-11T19:28:53.526Z,0.60
2023-04-11T19:31:48.140Z,0.47
2023-04-11T19:34:41.656Z,0.50
2023-04-11T19:37:34.579Z,0.30
2023-04-11T19:40:27.644Z,0.30
2023-04-11T19:43:20.847Z,0.35
2023-04-11T19:46:13.676Z,0.52
2023-04-11T19:49:07.901Z,0.45
2023-04-11T19:52:00.751Z,0.40
2023-04-11T19:54:54.081Z,0.45
2023-04-11T19:57:47.524Z,0.40
2023-04-11T20:00:40.971Z,0.40
2023-04-11T20:03:34.378Z,0.40
2023-04-11T20:06:29.548Z,0.22
2023-04-11T20:09:23.028Z,0.47
2023-04-11T20:12:16.629Z,0.38
2023-04-11T20:15:10.912Z,0.32
2023-04-11T20:18:04.119Z,0.45
2023-04-11T20:20:57.782Z,0.30
2023-04-11T20:23:51.888Z,0.40
2023-04-11T20:26:44.539Z,0.40
2023-04-11T20:29:38.438Z,0.50
2023-04-11T20:32:31.469Z,0.40
2023-04-11T20:35:24.927Z,0.38
2023-04-11T20:38:18.326Z,0.40
2023-04-11T20:41:13.732Z,0.38
2023-04-11T20:44:06.572Z,0.30
2023-04-11T20:47:00.028Z,0.40
2023-04-11T20:49:55.569Z,0.40
2023-04-11T20:52:52.415Z,0.40
2023-04-11T20:55:47.964Z,0.40
2023-04-11T20:58:42.672Z,0.50
2023-04-11T21:01:36.487Z,0.40
2023-04-11T21:04:30.296Z,0.40
2023-04-11T21:07:23.867Z,0.52
2023-04-11T21:10:16.792Z,0.43
2023-04-11T21:13:09.473Z,0.30
2023-04-11T21:16:04.211Z,0.40
2023-04-11T21:18:57.795Z,0.47
2023-04-11T21:21:50.816Z,0.50
2023-04-11T21:24:43.537Z,0.40
2023-04-11T21:27:36.608Z,0.57
2023-04-11T21:30:30.574Z,0.32
2023-04-11T21:33:25.238Z,0.50
2023-04-11T21:36:18.629Z,0.40
2023-04-11T21:39:11.873Z,0.50
2023-04-11T21:42:04.606Z,0.40
2023-04-11T21:44:57.719Z,0.47
2023-04-11T21:47:51.443Z,0.50
2023-04-11T21:50:46.439Z,0.55
2023-04-11T21:53:39.708Z,0.40
2023-04-11T21:56:32.712Z,0.60
2023-04-11T21:59:26.146Z,0.52
2023-04-11T22:02:20.050Z,0.50
2023-04-11T22:05:13.679Z,0.47
2023-04-11T22:08:12.453Z,0.40
2023-04-11T22:11:07.891Z,0.50
2023-04-11T22:14:00.872Z,0.40
2023-04-11T22:16:58.019Z,0.50
2023-04-11T22:19:51.086Z,0.45
2023-04-11T22:22:44.682Z,0.52
2023-04-11T22:25:42.542Z,0.43
2023-04-11T22:28:35.886Z,0.50
2023-04-11T22:31:30.721Z,0.30
2023-04-11T22:34:23.478Z,0.45
2023-04-11T22:37:16.779Z,0.47
2023-04-11T22:40:13.496Z,0.43
2023-04-11T22:43:08.230Z,0.50
2023-04-11T22:46:02.481Z,0.50
2023-04-11T22:48:57.827Z,0.40
2023-04-11T22:51:53.264Z,0.40
2023-04-11T22:54:48.357Z,0.50
2023-04-11T22:57:41.973Z,0.35
2023-04-11T23:00:38.300Z,0.40
2023-04-11T23:03:31.736Z,0.60
2023-04-11T23:06:24.688Z,0.43
2023-04-11T23:09:17.962Z,0.55
2023-04-11T23:12:10.746Z,0.50
2023-04-11T23:15:04.210Z,0.45
2023-04-11T23:17:59.393Z,0.40
2023-04-11T23:20:52.964Z,0.40
2023-04-11T23:23:45.780Z,0.40
2023-04-11T23:26:38.897Z,0.45
2023-04-11T23:29:31.875Z,0.60
2023-04-11T23:32:25.060Z,0.40
2023-04-11T23:35:19.455Z,0.68
2023-04-11T23:38:12.823Z,0.70
2023-04-11T23:41:06.130Z,0.40
2023-04-11T23:43:58.975Z,0.50
2023-04-11T23:46:51.999Z,0.52
2023-04-11T23:49:45.116Z,0.50
2023-04-11T23:52:39.705Z,0.40
2023-04-11T23:55:32.655Z,0.45
2023-04-11T23:58:26.265Z,0.70
